sensor_id;sensor_type;location;lat;lon;timestamp;temperature;humidity
16040;DHT22;8124;48.634;8.120;2023-05-10T00:01:45;17.20;99.90
16040;DHT22;8124;48.634;8.120;2023-05-10T00:06:48;17.20;99.90
16040;DHT22;8124;48.634;8.120;2023-05-10T00:11:55;17.20;99.90
16040;DHT22;8124;48.634;8.120;2023-05-10T00:17:03;17.10;99.90
16040;DHT22;8124;48.634;8.120;2023-05-10T00:22:05;17.20;99.90
16040;DHT22;8124;48.634;8.120;2023-05-10T00:27:10;17.20;99.90
16040;DHT22;8124;48.634;8.120;2023-05-10T00:32:13;17.20;99.90
16040;DHT22;8124;48.634;8.120;2023-05-10T00:37:17;17.00;99.90
16040;DHT22;8124;48.634;8.120;2023-05-10T00:42:21;17.10;99.90
16040;DHT22;8124;48.634;8.120;2023-05-10T00:47:27;17.20;99.90
16040;DHT22;8124;48.634;8.120;2023-05-10T00:52:30;17.10;99.90
16040;DHT22;8124;48.634;8.120;2023-05-10T00:57:35;17.10;99.90
16040;DHT22;8124;48.634;8.120;2023-05-10T01:02:38;17.00;99.90
16040;DHT22;8124;48.634;8.120;2023-05-10T01:07:41;17.00;99.90
16040;DHT22;8124;48.634;8.120;2023-05-10T01:12:46;17.10;99.90
16040;DHT22;8124;48.634;8.120;2023-05-10T01:17:50;17.10;99.90
16040;DHT22;8124;48.634;8.120;2023-05-10T01:23:19;17.00;99.90
16040;DHT22;8124;48.634;8.120;2023-05-10T01:29:01;17.10;99.90
16040;DHT22;8124;48.634;8.120;2023-05-10T01:34:12;17.10;99.90
16040;DHT22;8124;48.634;8.120;2023-05-10T01:39:19;17.10;99.90
16040;DHT22;8124;48.634;8.120;2023-05-10T01:44:31;17.00;99.90
16040;DHT22;8124;48.634;8.120;2023-05-10T01:49:43;17.00;99.90
16040;DHT22;8124;48.634;8.120;2023-05-10T01:54:55;17.00;99.90
16040;DHT22;8124;48.634;8.120;2023-05-10T01:59:59;17.10;99.90
16040;DHT22;8124;48.634;8.120;2023-05-10T02:05:17;17.20;99.90
16040;DHT22;8124;48.634;8.120;2023-05-10T02:10:21;17.10;99.90
16040;DHT22;8124;48.634;8.120;2023-05-10T02:15:26;17.10;99.90
16040;DHT22;8124;48.634;8.120;2023-05-10T02:20:31;17.00;99.90
16040;DHT22;8124;48.634;8.120;2023-05-10T02:25:36;16.80;99.90
16040;DHT22;8124;48.634;8.120;2023-05-10T02:30:40;16.60;99.90
16040;DHT22;8124;48.634;8.120;2023-05-10T02:35:46;16.50;99.90
16040;DHT22;8124;48.634;8.120;2023-05-10T02:40:51;16.50;99.90
16040;DHT22;8124;48.634;8.120;2023-05-10T02:45:54;16.50;99.90
16040;DHT22;8124;48.634;8.120;2023-05-10T02:51:03;16.50;99.90
16040;DHT22;8124;48.634;8.120;2023-05-10T02:56:12;16.70;99.90
16040;DHT22;8124;48.634;8.120;2023-05-10T03:01:17;16.70;99.90
16040;DHT22;8124;48.634;8.120;2023-05-10T03:06:22;16.80;99.90
16040;DHT22;8124;48.634;8.120;2023-05-10T03:11:36;16.60;99.90
16040;DHT22;8124;48.634;8.120;2023-05-10T03:16:45;16.70;99.90
16040;DHT22;8124;48.634;8.120;2023-05-10T03:21:52;16.70;99.90
16040;DHT22;8124;48.634;8.120;2023-05-10T03:26:59;16.70;99.90
16040;DHT22;8124;48.634;8.120;2023-05-10T03:32:04;16.60;99.90
16040;DHT22;8124;48.634;8.120;2023-05-10T03:37:09;16.60;99.90
16040;DHT22;8124;48.634;8.120;2023-05-10T03:42:12;16.70;99.90
16040;DHT22;8124;48.634;8.120;2023-05-10T03:47:15;16.80;99.90
16040;DHT22;8124;48.634;8.120;2023-05-10T03:52:19;16.80;99.90
16040;DHT22;8124;48.634;8.120;2023-05-10T03:57:22;16.70;99.90
16040;DHT22;8124;48.634;8.120;2023-05-10T04:02:28;16.60;99.90
16040;DHT22;8124;48.634;8.120;2023-05-10T04:07:33;16.50;99.90
16040;DHT22;8124;48.634;8.120;2023-05-10T04:12:38;16.40;99.90
16040;DHT22;8124;48.634;8.120;2023-05-10T04:17:41;16.30;99.90
16040;DHT22;8124;48.634;8.120;2023-05-10T04:22:45;16.20;99.90
16040;DHT22;8124;48.634;8.120;2023-05-10T04:27:48;16.30;99.90
16040;DHT22;8124;48.634;8.120;2023-05-10T04:32:51;16.20;99.90
16040;DHT22;8124;48.634;8.120;2023-05-10T04:37:58;16.20;99.90
16040;DHT22;8124;48.634;8.120;2023-05-10T04:43:01;16.40;99.90
16040;DHT22;8124;48.634;8.120;2023-05-10T04:48:04;16.40;99.90
16040;DHT22;8124;48.634;8.120;2023-05-10T04:53:09;16.30;99.90
16040;DHT22;8124;48.634;8.120;2023-05-10T04:58:11;16.40;99.90
16040;DHT22;8124;48.634;8.120;2023-05-10T05:03:17;16.30;99.90
16040;DHT22;8124;48.634;8.120;2023-05-10T05:08:22;16.10;99.90
16040;DHT22;8124;48.634;8.120;2023-05-10T05:13:25;16.20;99.90
16040;DHT22;8124;48.634;8.120;2023-05-10T05:18:28;16.10;99.90
16040;DHT22;8124;48.634;8.120;2023-05-10T05:23:33;16.20;99.90
16040;DHT22;8124;48.634;8.120;2023-05-10T05:28:36;16.10;99.90
16040;DHT22;8124;48.634;8.120;2023-05-10T05:33:39;16.20;99.90
16040;DHT22;8124;48.634;8.120;2023-05-10T05:38:44;16.10;99.90
16040;DHT22;8124;48.634;8.120;2023-05-10T05:43:47;16.00;99.90
16040;DHT22;8124;48.634;8.120;2023-05-10T05:48:50;16.10;99.90
16040;DHT22;8124;48.634;8.120;2023-05-10T05:53:54;16.10;99.90
16040;DHT22;8124;48.634;8.120;2023-05-10T05:58:57;16.10;99.90
16040;DHT22;8124;48.634;8.120;2023-05-10T06:04:00;16.10;99.90
16040;DHT22;8124;48.634;8.120;2023-05-10T06:09:05;16.00;99.90
16040;DHT22;8124;48.634;8.120;2023-05-10T06:14:08;16.10;99.90
16040;DHT22;8124;48.634;8.120;2023-05-10T06:19:11;16.10;99.90
16040;DHT22;8124;48.634;8.120;2023-05-10T06:24:16;16.10;99.90
16040;DHT22;8124;48.634;8.120;2023-05-10T06:29:19;16.20;99.90
16040;DHT22;8124;48.634;8.120;2023-05-10T06:34:22;16.20;99.90
16040;DHT22;8124;48.634;8.120;2023-05-10T06:39:26;16.30;99.90
16040;DHT22;8124;48.634;8.120;2023-05-10T06:44:31;16.20;99.90
16040;DHT22;8124;48.634;8.120;2023-05-10T06:49:34;16.20;99.90
16040;DHT22;8124;48.634;8.120;2023-05-10T06:54:38;16.30;99.90
16040;DHT22;8124;48.634;8.120;2023-05-10T06:59:42;16.20;99.90
16040;DHT22;8124;48.634;8.120;2023-05-10T07:04:47;16.20;99.90
16040;DHT22;8124;48.634;8.120;2023-05-10T07:09:51;16.30;99.90
16040;DHT22;8124;48.634;8.120;2023-05-10T07:14:54;16.20;99.90
16040;DHT22;8124;48.634;8.120;2023-05-10T07:19:58;16.30;99.90
16040;DHT22;8124;48.634;8.120;2023-05-10T07:25:03;16.30;99.90
16040;DHT22;8124;48.634;8.120;2023-05-10T07:30:07;16.30;99.90
16040;DHT22;8124;48.634;8.120;2023-05-10T07:35:11;16.30;99.90
16040;DHT22;8124;48.634;8.120;2023-05-10T07:40:15;16.40;99.90
16040;DHT22;8124;48.634;8.120;2023-05-10T07:45:18;16.40;99.90
16040;DHT22;8124;48.634;8.120;2023-05-10T07:50:21;16.40;99.90
16040;DHT22;8124;48.634;8.120;2023-05-10T07:55:26;16.30;99.90
16040;DHT22;8124;48.634;8.120;2023-05-10T08:00:29;16.30;99.90
16040;DHT22;8124;48.634;8.120;2023-05-10T08:05:32;16.30;99.90
16040;DHT22;8124;48.634;8.120;2023-05-10T08:10:37;16.70;99.90
16040;DHT22;8124;48.634;8.120;2023-05-10T08:15:40;16.60;99.90
16040;DHT22;8124;48.634;8.120;2023-05-10T08:20:44;16.70;99.90
16040;DHT22;8124;48.634;8.120;2023-05-10T08:25:48;16.70;99.90
16040;DHT22;8124;48.634;8.120;2023-05-10T08:30:51;16.70;99.90
16040;DHT22;8124;48.634;8.120;2023-05-10T08:35:54;16.90;99.90
16040;DHT22;8124;48.634;8.120;2023-05-10T08:41:00;17.00;99.90
16040;DHT22;8124;48.634;8.120;2023-05-10T08:46:05;16.90;99.90
16040;DHT22;8124;48.634;8.120;2023-05-10T08:51:09;16.60;99.90
16040;DHT22;8124;48.634;8.120;2023-05-10T08:56:16;15.80;99.90
16040;DHT22;8124;48.634;8.120;2023-05-10T09:01:21;15.50;99.90
16040;DHT22;8124;48.634;8.120;2023-05-10T09:06:25;15.70;99.90
16040;DHT22;8124;48.634;8.120;2023-05-10T09:11:30;15.70;99.90
16040;DHT22;8124;48.634;8.120;2023-05-10T09:16:33;15.90;99.90
16040;DHT22;8124;48.634;8.120;2023-05-10T09:21:36;16.10;99.90
16040;DHT22;8124;48.634;8.120;2023-05-10T09:26:47;16.30;99.90
16040;DHT22;8124;48.634;8.120;2023-05-10T09:31:51;16.20;99.90
16040;DHT22;8124;48.634;8.120;2023-05-10T09:36:58;16.20;99.90
16040;DHT22;8124;48.634;8.120;2023-05-10T09:42:05;16.30;99.90
16040;DHT22;8124;48.634;8.120;2023-05-10T09:47:08;16.60;99.90
16040;DHT22;8124;48.634;8.120;2023-05-10T09:52:11;17.00;99.90
16040;DHT22;8124;48.634;8.120;2023-05-10T09:57:20;17.00;99.90
16040;DHT22;8124;48.634;8.120;2023-05-10T10:02:28;17.10;99.90
16040;DHT22;8124;48.634;8.120;2023-05-10T10:07:32;17.20;99.90
16040;DHT22;8124;48.634;8.120;2023-05-10T10:12:37;17.50;99.90
16040;DHT22;8124;48.634;8.120;2023-05-10T10:17:40;17.60;99.90
16040;DHT22;8124;48.634;8.120;2023-05-10T10:22:44;17.70;99.90
16040;DHT22;8124;48.634;8.120;2023-05-10T10:27:57;17.60;99.90
16040;DHT22;8124;48.634;8.120;2023-05-10T10:33:29;17.40;99.90
16040;DHT22;8124;48.634;8.120;2023-05-10T10:38:37;17.40;99.90
16040;DHT22;8124;48.634;8.120;2023-05-10T10:43:42;17.40;99.90
16040;DHT22;8124;48.634;8.120;2023-05-10T10:48:48;17.70;99.90
16040;DHT22;8124;48.634;8.120;2023-05-10T10:53:51;17.60;99.90
16040;DHT22;8124;48.634;8.120;2023-05-10T10:58:59;17.70;99.90
16040;DHT22;8124;48.634;8.120;2023-05-10T11:04:18;17.60;99.90
16040;DHT22;8124;48.634;8.120;2023-05-10T11:09:24;17.70;99.90
16040;DHT22;8124;48.634;8.120;2023-05-10T11:14:31;17.80;99.90
16040;DHT22;8124;48.634;8.120;2023-05-10T11:24:56;17.50;99.90
16040;DHT22;8124;48.634;8.120;2023-05-10T11:30:01;17.40;99.90
16040;DHT22;8124;48.634;8.120;2023-05-10T11:35:09;17.30;99.90
16040;DHT22;8124;48.634;8.120;2023-05-10T11:40:13;17.90;99.90
16040;DHT22;8124;48.634;8.120;2023-05-10T11:45:17;18.00;99.90
16040;DHT22;8124;48.634;8.120;2023-05-10T11:50:28;18.20;99.90
16040;DHT22;8124;48.634;8.120;2023-05-10T11:55:33;18.20;99.90
16040;DHT22;8124;48.634;8.120;2023-05-10T12:00:38;18.40;99.90
16040;DHT22;8124;48.634;8.120;2023-05-10T12:05:41;18.50;99.90
16040;DHT22;8124;48.634;8.120;2023-05-10T12:10:44;18.30;99.90
16040;DHT22;8124;48.634;8.120;2023-05-10T12:15:48;18.50;99.90
16040;DHT22;8124;48.634;8.120;2023-05-10T12:20:52;18.60;99.90
16040;DHT22;8124;48.634;8.120;2023-05-10T12:26:01;18.80;99.90
16040;DHT22;8124;48.634;8.120;2023-05-10T12:31:06;18.70;99.90
16040;DHT22;8124;48.634;8.120;2023-05-10T12:36:11;18.70;99.90
16040;DHT22;8124;48.634;8.120;2023-05-10T12:41:15;18.70;99.90
16040;DHT22;8124;48.634;8.120;2023-05-10T12:46:20;18.60;99.90
16040;DHT22;8124;48.634;8.120;2023-05-10T12:51:26;18.20;99.90
16040;DHT22;8124;48.634;8.120;2023-05-10T12:56:29;18.00;99.90
16040;DHT22;8124;48.634;8.120;2023-05-10T13:01:34;18.30;99.90
16040;DHT22;8124;48.634;8.120;2023-05-10T13:06:37;18.40;99.90
16040;DHT22;8124;48.634;8.120;2023-05-10T13:11:40;18.60;99.90
16040;DHT22;8124;48.634;8.120;2023-05-10T13:16:45;18.60;99.90
16040;DHT22;8124;48.634;8.120;2023-05-10T13:21:48;18.20;99.90
16040;DHT22;8124;48.634;8.120;2023-05-10T13:26:50;18.30;99.90
16040;DHT22;8124;48.634;8.120;2023-05-10T13:31:55;18.00;99.90
16040;DHT22;8124;48.634;8.120;2023-05-10T13:36:58;18.10;99.90
16040;DHT22;8124;48.634;8.120;2023-05-10T13:42:01;18.70;99.90
16040;DHT22;8124;48.634;8.120;2023-05-10T13:47:06;19.00;99.90
16040;DHT22;8124;48.634;8.120;2023-05-10T13:52:09;19.20;99.90
16040;DHT22;8124;48.634;8.120;2023-05-10T13:57:11;19.30;99.90
16040;DHT22;8124;48.634;8.120;2023-05-10T14:02:24;19.50;99.90
16040;DHT22;8124;48.634;8.120;2023-05-10T14:07:29;19.60;99.90
16040;DHT22;8124;48.634;8.120;2023-05-10T14:12:32;19.70;99.90
16040;DHT22;8124;48.634;8.120;2023-05-10T14:17:36;19.60;99.90
16040;DHT22;8124;48.634;8.120;2023-05-10T14:22:39;19.80;99.90
16040;DHT22;8124;48.634;8.120;2023-05-10T14:27:55;19.60;99.90
16040;DHT22;8124;48.634;8.120;2023-05-10T14:32:59;19.30;99.90
16040;DHT22;8124;48.634;8.120;2023-05-10T14:38:02;19.00;99.90
16040;DHT22;8124;48.634;8.120;2023-05-10T14:43:05;18.50;99.90
16040;DHT22;8124;48.634;8.120;2023-05-10T14:48:10;18.30;99.90
16040;DHT22;8124;48.634;8.120;2023-05-10T14:53:17;18.30;99.90
16040;DHT22;8124;48.634;8.120;2023-05-10T14:58:22;18.70;99.90
16040;DHT22;8124;48.634;8.120;2023-05-10T15:03:26;18.90;99.90
16040;DHT22;8124;48.634;8.120;2023-05-10T15:08:29;18.90;99.90
16040;DHT22;8124;48.634;8.120;2023-05-10T15:13:32;19.10;99.90
16040;DHT22;8124;48.634;8.120;2023-05-10T15:18:37;18.90;99.90
16040;DHT22;8124;48.634;8.120;2023-05-10T15:23:42;18.60;99.90
16040;DHT22;8124;48.634;8.120;2023-05-10T15:28:47;18.40;99.90
16040;DHT22;8124;48.634;8.120;2023-05-10T15:33:51;18.10;99.90
16040;DHT22;8124;48.634;8.120;2023-05-10T15:38:59;18.10;99.90
16040;DHT22;8124;48.634;8.120;2023-05-10T15:44:03;18.00;99.90
16040;DHT22;8124;48.634;8.120;2023-05-10T15:49:07;18.20;99.90
16040;DHT22;8124;48.634;8.120;2023-05-10T15:54:10;18.10;99.90
16040;DHT22;8124;48.634;8.120;2023-05-10T15:59:13;18.30;99.90
16040;DHT22;8124;48.634;8.120;2023-05-10T16:04:34;18.30;99.90
16040;DHT22;8124;48.634;8.120;2023-05-10T16:09:37;18.30;99.90
16040;DHT22;8124;48.634;8.120;2023-05-10T16:14:40;18.40;99.90
16040;DHT22;8124;48.634;8.120;2023-05-10T16:19:44;18.40;99.90
16040;DHT22;8124;48.634;8.120;2023-05-10T16:24:48;18.30;99.90
16040;DHT22;8124;48.634;8.120;2023-05-10T16:29:55;18.20;99.90
16040;DHT22;8124;48.634;8.120;2023-05-10T16:35:00;18.10;99.90
16040;DHT22;8124;48.634;8.120;2023-05-10T16:40:09;18.10;99.90
16040;DHT22;8124;48.634;8.120;2023-05-10T16:45:13;18.00;99.90
16040;DHT22;8124;48.634;8.120;2023-05-10T16:50:18;17.90;99.90
16040;DHT22;8124;48.634;8.120;2023-05-10T16:55:21;17.60;99.90
16040;DHT22;8124;48.634;8.120;2023-05-10T17:00:29;17.40;99.90
16040;DHT22;8124;48.634;8.120;2023-05-10T17:05:34;17.40;99.90
16040;DHT22;8124;48.634;8.120;2023-05-10T17:10:39;17.30;99.90
16040;DHT22;8124;48.634;8.120;2023-05-10T17:15:44;17.40;99.90
16040;DHT22;8124;48.634;8.120;2023-05-10T17:20:49;17.40;99.90
16040;DHT22;8124;48.634;8.120;2023-05-10T17:25:52;17.40;99.90
16040;DHT22;8124;48.634;8.120;2023-05-10T17:30:56;17.50;99.90
16040;DHT22;8124;48.634;8.120;2023-05-10T17:36:00;17.80;99.90
16040;DHT22;8124;48.634;8.120;2023-05-10T17:41:03;18.20;99.90
16040;DHT22;8124;48.634;8.120;2023-05-10T17:46:06;18.20;99.90
16040;DHT22;8124;48.634;8.120;2023-05-10T17:51:11;18.30;99.90
16040;DHT22;8124;48.634;8.120;2023-05-10T17:56:14;18.40;99.90
16040;DHT22;8124;48.634;8.120;2023-05-10T18:01:18;18.30;99.90
16040;DHT22;8124;48.634;8.120;2023-05-10T18:06:22;18.30;99.90
16040;DHT22;8124;48.634;8.120;2023-05-10T18:11:25;18.20;99.90
16040;DHT22;8124;48.634;8.120;2023-05-10T18:16:28;18.30;99.90
16040;DHT22;8124;48.634;8.120;2023-05-10T18:21:33;18.20;99.90
16040;DHT22;8124;48.634;8.120;2023-05-10T18:26:36;18.00;99.90
16040;DHT22;8124;48.634;8.120;2023-05-10T18:31:40;17.70;99.90
16040;DHT22;8124;48.634;8.120;2023-05-10T18:36:45;17.60;99.90
16040;DHT22;8124;48.634;8.120;2023-05-10T18:41:56;17.60;99.90
16040;DHT22;8124;48.634;8.120;2023-05-10T18:46:59;17.60;99.90
16040;DHT22;8124;48.634;8.120;2023-05-10T18:52:22;17.60;99.90
16040;DHT22;8124;48.634;8.120;2023-05-10T18:57:25;17.20;99.90
16040;DHT22;8124;48.634;8.120;2023-05-10T19:02:28;17.20;99.90
16040;DHT22;8124;48.634;8.120;2023-05-10T19:07:32;17.00;99.90
16040;DHT22;8124;48.634;8.120;2023-05-10T19:12:35;16.80;99.90
16040;DHT22;8124;48.634;8.120;2023-05-10T19:17:38;16.80;99.90
16040;DHT22;8124;48.634;8.120;2023-05-10T19:28:24;16.80;99.90
16040;DHT22;8124;48.634;8.120;2023-05-10T19:33:27;16.80;99.90
16040;DHT22;8124;48.634;8.120;2023-05-10T19:38:30;16.90;99.90
16040;DHT22;8124;48.634;8.120;2023-05-10T19:44:09;16.80;99.90
16040;DHT22;8124;48.634;8.120;2023-05-10T19:49:27;17.00;99.90
16040;DHT22;8124;48.634;8.120;2023-05-10T20:00:13;16.80;99.90
16040;DHT22;8124;48.634;8.120;2023-05-10T20:05:34;16.50;99.90
16040;DHT22;8124;48.634;8.120;2023-05-10T20:10:37;16.60;99.90
16040;DHT22;8124;48.634;8.120;2023-05-10T20:15:41;16.60;99.90
16040;DHT22;8124;48.634;8.120;2023-05-10T20:20:45;16.50;99.90
16040;DHT22;8124;48.634;8.120;2023-05-10T20:25:48;16.70;99.90
16040;DHT22;8124;48.634;8.120;2023-05-10T20:30:53;16.60;99.90
16040;DHT22;8124;48.634;8.120;2023-05-10T20:35:56;16.60;99.90
16040;DHT22;8124;48.634;8.120;2023-05-10T20:40:59;16.90;99.90
16040;DHT22;8124;48.634;8.120;2023-05-10T20:46:04;16.80;99.90
16040;DHT22;8124;48.634;8.120;2023-05-10T20:51:07;16.70;99.90
16040;DHT22;8124;48.634;8.120;2023-05-10T20:56:10;16.60;99.90
16040;DHT22;8124;48.634;8.120;2023-05-10T21:01:14;16.50;99.90
16040;DHT22;8124;48.634;8.120;2023-05-10T21:06:17;16.50;99.90
16040;DHT22;8124;48.634;8.120;2023-05-10T21:11:20;16.40;99.90
16040;DHT22;8124;48.634;8.120;2023-05-10T21:16:25;16.40;99.90
16040;DHT22;8124;48.634;8.120;2023-05-10T21:21:28;16.30;99.90
16040;DHT22;8124;48.634;8.120;2023-05-10T21:26:31;16.30;99.90
16040;DHT22;8124;48.634;8.120;2023-05-10T21:31:35;16.20;99.90
16040;DHT22;8124;48.634;8.120;2023-05-10T21:36:38;16.10;99.90
16040;DHT22;8124;48.634;8.120;2023-05-10T21:41:41;16.10;99.90
16040;DHT22;8124;48.634;8.120;2023-05-10T21:46:45;16.10;99.90
16040;DHT22;8124;48.634;8.120;2023-05-10T21:51:49;16.20;99.90
16040;DHT22;8124;48.634;8.120;2023-05-10T21:56:51;16.10;99.90
16040;DHT22;8124;48.634;8.120;2023-05-10T22:01:56;16.10;99.90
16040;DHT22;8124;48.634;8.120;2023-05-10T22:06:59;16.10;99.90
16040;DHT22;8124;48.634;8.120;2023-05-10T22:12:02;16.20;99.90
16040;DHT22;8124;48.634;8.120;2023-05-10T22:17:06;16.20;99.90
16040;DHT22;8124;48.634;8.120;2023-05-10T22:22:09;16.20;99.90
16040;DHT22;8124;48.634;8.120;2023-05-10T22:27:12;16.20;99.90
16040;DHT22;8124;48.634;8.120;2023-05-10T22:32:17;16.10;99.90
16040;DHT22;8124;48.634;8.120;2023-05-10T22:37:20;16.10;99.90
16040;DHT22;8124;48.634;8.120;2023-05-10T22:42:23;16.10;99.90
16040;DHT22;8124;48.634;8.120;2023-05-10T22:47:28;16.00;99.90
16040;DHT22;8124;48.634;8.120;2023-05-10T22:52:31;16.10;99.90
16040;DHT22;8124;48.634;8.120;2023-05-10T22:57:34;16.10;99.90
16040;DHT22;8124;48.634;8.120;2023-05-10T23:02:38;16.10;99.90
16040;DHT22;8124;48.634;8.120;2023-05-10T23:07:41;16.10;99.90
16040;DHT22;8124;48.634;8.120;2023-05-10T23:12:44;16.10;99.90
16040;DHT22;8124;48.634;8.120;2023-05-10T23:17:49;16.00;99.90
16040;DHT22;8124;48.634;8.120;2023-05-10T23:22:52;16.10;99.90
16040;DHT22;8124;48.634;8.120;2023-05-10T23:27:55;16.00;99.90
16040;DHT22;8124;48.634;8.120;2023-05-10T23:32:59;16.00;99.90
16040;DHT22;8124;48.634;8.120;2023-05-10T23:38:02;16.10;99.90
16040;DHT22;8124;48.634;8.120;2023-05-10T23:43:05;16.10;99.90
16040;DHT22;8124;48.634;8.120;2023-05-10T23:48:09;16.00;99.90
16040;DHT22;8124;48.634;8.120;2023-05-10T23:53:14;16.00;99.90
16040;DHT22;8124;48.634;8.120;2023-05-10T23:58:17;16.00;99.90
